sensor_id;sensor_type;location;lat;lon;timestamp;P1;durP1;ratioP1;P2;durP2;ratioP2
58091;SDS011;43896;48.178;11.578;2022-07-18T04:39:21;9.23;;;4.78;;
58091;SDS011;43896;48.178;11.578;2022-07-18T04:41:46;7.03;;;4.50;;
58091;SDS011;43896;48.178;11.578;2022-07-18T04:44:12;8.98;;;4.57;;
58091;SDS011;43896;48.178;11.578;2022-07-18T04:46:41;8.55;;;4.70;;
58091;SDS011;43896;48.178;11.578;2022-07-18T04:49:06;8.10;;;4.70;;
58091;SDS011;43896;48.178;11.578;2022-07-18T04:51:32;7.47;;;4.70;;
58091;SDS011;43896;48.178;11.578;2022-07-18T04:53:57;8.35;;;4.50;;
58091;SDS011;43896;48.178;11.578;2022-07-18T04:56:33;7.30;;;4.60;;
58091;SDS011;43896;48.178;11.578;2022-07-18T04:58:58;8.07;;;5.30;;
58091;SDS011;43896;48.178;11.578;2022-07-18T05:01:24;7.78;;;5.10;;
58091;SDS011;43896;48.178;11.578;2022-07-18T05:03:49;6.90;;;4.45;;
58091;SDS011;43896;48.178;11.578;2022-07-18T05:06:15;7.80;;;4.90;;
58091;SDS011;43896;48.178;11.578;2022-07-18T05:08:40;7.28;;;4.75;;
58091;SDS011;43896;48.178;11.578;2022-07-18T05:11:06;8.10;;;5.00;;
58091;SDS011;43896;48.178;11.578;2022-07-18T05:13:32;7.82;;;4.88;;
58091;SDS011;43896;48.178;11.578;2022-07-18T05:15:57;8.63;;;4.82;;
58091;SDS011;43896;48.178;11.578;2022-07-18T05:18:23;7.75;;;4.80;;
58091;SDS011;43896;48.178;11.578;2022-07-18T05:20:48;8.25;;;4.80;;
58091;SDS011;43896;48.178;11.578;2022-07-18T05:23:14;9.15;;;5.22;;
58091;SDS011;43896;48.178;11.578;2022-07-18T05:25:40;7.20;;;4.80;;
58091;SDS011;43896;48.178;11.578;2022-07-18T05:28:08;7.60;;;5.07;;
58091;SDS011;43896;48.178;11.578;2022-07-18T05:30:35;8.73;;;5.00;;
58091;SDS011;43896;48.178;11.578;2022-07-18T05:33:01;7.20;;;4.53;;
58091;SDS011;43896;48.178;11.578;2022-07-18T05:35:26;7.13;;;4.75;;
58091;SDS011;43896;48.178;11.578;2022-07-18T05:37:51;13.98;;;5.20;;
58091;SDS011;43896;48.178;11.578;2022-07-18T05:40:17;11.13;;;5.10;;
58091;SDS011;43896;48.178;11.578;2022-07-18T05:42:43;10.20;;;5.00;;
58091;SDS011;43896;48.178;11.578;2022-07-18T05:45:09;8.93;;;4.78;;
58091;SDS011;43896;48.178;11.578;2022-07-18T05:47:35;6.63;;;4.50;;
58091;SDS011;43896;48.178;11.578;2022-07-18T05:50:00;7.55;;;4.68;;
58091;SDS011;43896;48.178;11.578;2022-07-18T05:52:26;7.22;;;4.90;;
58091;SDS011;43896;48.178;11.578;2022-07-18T05:54:58;8.20;;;4.97;;
58091;SDS011;43896;48.178;11.578;2022-07-18T05:57:24;9.73;;;4.88;;
58091;SDS011;43896;48.178;11.578;2022-07-18T05:59:49;8.38;;;4.68;;
58091;SDS011;43896;48.178;11.578;2022-07-18T06:02:15;8.90;;;4.95;;
58091;SDS011;43896;48.178;11.578;2022-07-18T06:04:41;7.57;;;4.70;;
58091;SDS011;43896;48.178;11.578;2022-07-18T06:07:06;7.43;;;4.40;;
58091;SDS011;43896;48.178;11.578;2022-07-18T06:09:32;9.57;;;4.70;;
58091;SDS011;43896;48.178;11.578;2022-07-18T06:11:58;6.10;;;4.20;;
58091;SDS011;43896;48.178;11.578;2022-07-18T06:14:27;8.02;;;4.53;;
58091;SDS011;43896;48.178;11.578;2022-07-18T06:16:52;7.18;;;4.18;;
58091;SDS011;43896;48.178;11.578;2022-07-18T06:19:18;9.05;;;4.18;;
58091;SDS011;43896;48.178;11.578;2022-07-18T06:21:43;6.50;;;4.07;;
58091;SDS011;43896;48.178;11.578;2022-07-18T06:24:09;8.77;;;4.30;;
58091;SDS011;43896;48.178;11.578;2022-07-18T06:26:34;7.57;;;4.40;;
58091;SDS011;43896;48.178;11.578;2022-07-18T06:28:59;8.52;;;4.32;;
58091;SDS011;43896;48.178;11.578;2022-07-18T06:31:25;9.80;;;4.18;;
58091;SDS011;43896;48.178;11.578;2022-07-18T06:33:50;10.48;;;4.10;;
58091;SDS011;43896;48.178;11.578;2022-07-18T06:36:16;7.22;;;4.20;;
58091;SDS011;43896;48.178;11.578;2022-07-18T06:38:42;9.68;;;4.05;;
58091;SDS011;43896;48.178;11.578;2022-07-18T06:41:07;7.28;;;3.58;;
58091;SDS011;43896;48.178;11.578;2022-07-18T06:43:33;6.97;;;4.03;;
58091;SDS011;43896;48.178;11.578;2022-07-18T06:45:59;6.50;;;3.65;;
58091;SDS011;43896;48.178;11.578;2022-07-18T06:48:24;9.02;;;3.88;;
58091;SDS011;43896;48.178;11.578;2022-07-18T06:50:49;7.57;;;3.90;;
58091;SDS011;43896;48.178;11.578;2022-07-18T06:53:15;9.23;;;4.28;;
58091;SDS011;43896;48.178;11.578;2022-07-18T06:55:40;5.53;;;3.60;;
58091;SDS011;43896;48.178;11.578;2022-07-18T06:58:06;7.38;;;3.78;;
58091;SDS011;43896;48.178;11.578;2022-07-18T07:00:31;6.63;;;3.75;;
58091;SDS011;43896;48.178;11.578;2022-07-18T07:02:57;7.15;;;3.50;;
58091;SDS011;43896;48.178;11.578;2022-07-18T07:05:22;6.72;;;3.67;;
58091;SDS011;43896;48.178;11.578;2022-07-18T07:07:49;7.78;;;3.40;;
58091;SDS011;43896;48.178;11.578;2022-07-18T07:10:15;6.53;;;3.40;;
58091;SDS011;43896;48.178;11.578;2022-07-18T07:12:42;5.43;;;3.28;;
58091;SDS011;43896;48.178;11.578;2022-07-18T07:15:13;6.22;;;3.35;;
58091;SDS011;43896;48.178;11.578;2022-07-18T07:17:39;9.98;;;3.38;;
58091;SDS011;43896;48.178;11.578;2022-07-18T07:20:05;9.85;;;3.70;;
58091;SDS011;43896;48.178;11.578;2022-07-18T07:22:32;8.05;;;3.88;;
58091;SDS011;43896;48.178;11.578;2022-07-18T07:25:05;8.38;;;3.40;;
58091;SDS011;43896;48.178;11.578;2022-07-18T07:27:31;6.50;;;3.00;;
58091;SDS011;43896;48.178;11.578;2022-07-18T07:29:57;6.90;;;3.30;;
58091;SDS011;43896;48.178;11.578;2022-07-18T07:32:22;5.45;;;3.00;;
58091;SDS011;43896;48.178;11.578;2022-07-18T07:34:47;7.47;;;3.22;;
58091;SDS011;43896;48.178;11.578;2022-07-18T07:37:13;7.40;;;2.75;;
58091;SDS011;43896;48.178;11.578;2022-07-18T07:39:38;6.93;;;2.65;;
58091;SDS011;43896;48.178;11.578;2022-07-18T07:42:03;6.28;;;3.28;;
58091;SDS011;43896;48.178;11.578;2022-07-18T07:44:29;6.35;;;2.60;;
58091;SDS011;43896;48.178;11.578;2022-07-18T07:46:54;4.72;;;2.50;;
58091;SDS011;43896;48.178;11.578;2022-07-18T07:49:20;4.47;;;2.63;;
58091;SDS011;43896;48.178;11.578;2022-07-18T07:51:45;4.20;;;2.65;;
58091;SDS011;43896;48.178;11.578;2022-07-18T07:54:10;4.43;;;2.63;;
58091;SDS011;43896;48.178;11.578;2022-07-18T07:56:36;6.80;;;2.40;;
58091;SDS011;43896;48.178;11.578;2022-07-18T07:59:01;5.80;;;2.40;;
58091;SDS011;43896;48.178;11.578;2022-07-18T08:01:27;4.47;;;2.60;;
58091;SDS011;43896;48.178;11.578;2022-07-18T08:03:52;6.38;;;2.58;;
58091;SDS011;43896;48.178;11.578;2022-07-18T08:06:17;4.63;;;2.70;;
58091;SDS011;43896;48.178;11.578;2022-07-18T08:08:43;5.63;;;2.50;;
58091;SDS011;43896;48.178;11.578;2022-07-18T08:11:08;5.95;;;2.40;;
58091;SDS011;43896;48.178;11.578;2022-07-18T08:13:34;4.30;;;2.42;;
58091;SDS011;43896;48.178;11.578;2022-07-18T08:15:59;4.88;;;2.70;;
58091;SDS011;43896;48.178;11.578;2022-07-18T08:18:25;4.32;;;2.42;;
58091;SDS011;43896;48.178;11.578;2022-07-18T08:20:50;4.28;;;2.50;;
58091;SDS011;43896;48.178;11.578;2022-07-18T08:23:15;6.70;;;2.67;;
58091;SDS011;43896;48.178;11.578;2022-07-18T08:25:43;7.53;;;2.70;;
58091;SDS011;43896;48.178;11.578;2022-07-18T08:28:09;5.80;;;2.40;;
58091;SDS011;43896;48.178;11.578;2022-07-18T08:30:35;4.55;;;2.60;;
58091;SDS011;43896;48.178;11.578;2022-07-18T08:33:02;4.85;;;2.50;;
58091;SDS011;43896;48.178;11.578;2022-07-18T08:35:28;4.57;;;1.88;;
58091;SDS011;43896;48.178;11.578;2022-07-18T08:37:55;4.05;;;2.08;;
58091;SDS011;43896;48.178;11.578;2022-07-18T08:40:20;3.85;;;2.10;;
58091;SDS011;43896;48.178;11.578;2022-07-18T08:42:47;4.45;;;1.95;;
58091;SDS011;43896;48.178;11.578;2022-07-18T08:45:15;5.53;;;2.03;;
58091;SDS011;43896;48.178;11.578;2022-07-18T08:47:40;6.88;;;1.98;;
58091;SDS011;43896;48.178;11.578;2022-07-18T08:50:09;4.53;;;1.90;;
58091;SDS011;43896;48.178;11.578;2022-07-18T08:52:34;8.23;;;2.08;;
58091;SDS011;43896;48.178;11.578;2022-07-18T08:55:02;5.60;;;2.00;;
58091;SDS011;43896;48.178;11.578;2022-07-18T08:57:28;5.35;;;1.90;;
58091;SDS011;43896;48.178;11.578;2022-07-18T08:59:54;5.65;;;2.10;;
58091;SDS011;43896;48.178;11.578;2022-07-18T09:02:23;5.68;;;1.95;;
58091;SDS011;43896;48.178;11.578;2022-07-18T09:04:52;3.35;;;1.90;;
58091;SDS011;43896;48.178;11.578;2022-07-18T09:07:29;5.53;;;2.00;;
58091;SDS011;43896;48.178;11.578;2022-07-18T09:09:56;3.63;;;1.90;;
58091;SDS011;43896;48.178;11.578;2022-07-18T09:12:24;4.95;;;2.05;;
58091;SDS011;43896;48.178;11.578;2022-07-18T09:14:50;3.30;;;1.60;;
58091;SDS011;43896;48.178;11.578;2022-07-18T09:17:18;4.82;;;1.90;;
58091;SDS011;43896;48.178;11.578;2022-07-18T09:19:58;4.27;;;1.70;;
58091;SDS011;43896;48.178;11.578;2022-07-18T09:22:36;4.65;;;2.33;;
58091;SDS011;43896;48.178;11.578;2022-07-18T09:25:08;3.80;;;1.92;;
58091;SDS011;43896;48.178;11.578;2022-07-18T09:30:28;4.65;;;2.00;;
58091;SDS011;43896;48.178;11.578;2022-07-18T09:35:29;4.07;;;1.80;;
58091;SDS011;43896;48.178;11.578;2022-07-18T09:40:32;4.95;;;1.65;;
58091;SDS011;43896;48.178;11.578;2022-07-18T09:43:00;3.95;;;1.80;;
58091;SDS011;43896;48.178;11.578;2022-07-18T09:48:13;4.18;;;1.70;;
58091;SDS011;43896;48.178;11.578;2022-07-18T09:53:21;4.05;;;1.65;;
58091;SDS011;43896;48.178;11.578;2022-07-18T09:55:52;5.82;;;1.80;;
58091;SDS011;43896;48.178;11.578;2022-07-18T09:58:20;4.22;;;1.83;;
58091;SDS011;43896;48.178;11.578;2022-07-18T10:00:49;4.65;;;1.77;;
58091;SDS011;43896;48.178;11.578;2022-07-18T10:03:16;5.05;;;1.75;;
58091;SDS011;43896;48.178;11.578;2022-07-18T10:05:44;4.10;;;1.95;;
58091;SDS011;43896;48.178;11.578;2022-07-18T10:08:12;3.42;;;1.58;;
58091;SDS011;43896;48.178;11.578;2022-07-18T10:10:42;3.47;;;1.67;;
58091;SDS011;43896;48.178;11.578;2022-07-18T10:13:10;4.57;;;1.80;;
58091;SDS011;43896;48.178;11.578;2022-07-18T10:15:37;3.25;;;1.70;;
58091;SDS011;43896;48.178;11.578;2022-07-18T10:18:04;6.35;;;2.30;;
58091;SDS011;43896;48.178;11.578;2022-07-18T10:20:36;5.60;;;1.85;;
58091;SDS011;43896;48.178;11.578;2022-07-18T10:23:22;5.32;;;2.00;;
58091;SDS011;43896;48.178;11.578;2022-07-18T10:31:20;3.95;;;1.90;;
58091;SDS011;43896;48.178;11.578;2022-07-18T10:33:46;4.55;;;1.90;;
58091;SDS011;43896;48.178;11.578;2022-07-18T10:36:14;5.15;;;1.65;;
58091;SDS011;43896;48.178;11.578;2022-07-18T10:41:33;3.35;;;1.60;;
58091;SDS011;43896;48.178;11.578;2022-07-18T10:52:59;5.05;;;1.90;;
58091;SDS011;43896;48.178;11.578;2022-07-18T11:00:16;3.17;;;2.05;;
58091;SDS011;43896;48.178;11.578;2022-07-18T11:16:02;3.50;;;1.42;;
58091;SDS011;43896;48.178;11.578;2022-07-18T11:21:24;5.55;;;1.80;;
58091;SDS011;43896;48.178;11.578;2022-07-18T11:24:03;5.90;;;1.55;;
58091;SDS011;43896;48.178;11.578;2022-07-18T11:26:34;3.00;;;1.40;;
58091;SDS011;43896;48.178;11.578;2022-07-18T11:29:03;3.58;;;1.70;;
58091;SDS011;43896;48.178;11.578;2022-07-18T11:33:58;2.40;;;1.50;;
58091;SDS011;43896;48.178;11.578;2022-07-18T11:36:28;5.07;;;1.70;;
58091;SDS011;43896;48.178;11.578;2022-07-18T11:38:56;3.20;;;1.65;;
58091;SDS011;43896;48.178;11.578;2022-07-18T11:41:23;2.80;;;1.52;;
58091;SDS011;43896;48.178;11.578;2022-07-18T11:43:49;5.18;;;1.73;;
58091;SDS011;43896;48.178;11.578;2022-07-18T11:46:17;4.85;;;1.70;;
58091;SDS011;43896;48.178;11.578;2022-07-18T11:48:45;3.28;;;1.85;;
58091;SDS011;43896;48.178;11.578;2022-07-18T11:51:12;3.97;;;1.70;;
58091;SDS011;43896;48.178;11.578;2022-07-18T11:53:43;3.95;;;1.67;;
58091;SDS011;43896;48.178;11.578;2022-07-18T11:56:09;3.47;;;1.67;;
58091;SDS011;43896;48.178;11.578;2022-07-18T11:58:35;4.03;;;1.65;;
58091;SDS011;43896;48.178;11.578;2022-07-18T12:01:02;2.58;;;1.50;;
58091;SDS011;43896;48.178;11.578;2022-07-18T12:03:28;3.22;;;1.60;;
58091;SDS011;43896;48.178;11.578;2022-07-18T12:05:54;7.03;;;2.00;;
58091;SDS011;43896;48.178;11.578;2022-07-18T12:08:33;6.13;;;1.63;;
58091;SDS011;43896;48.178;11.578;2022-07-18T12:13:42;3.95;;;1.70;;
58091;SDS011;43896;48.178;11.578;2022-07-18T12:19:05;3.72;;;1.55;;
58091;SDS011;43896;48.178;11.578;2022-07-18T12:21:40;4.03;;;1.65;;
58091;SDS011;43896;48.178;11.578;2022-07-18T12:32:28;2.65;;;1.50;;
58091;SDS011;43896;48.178;11.578;2022-07-18T12:35:03;7.65;;;1.83;;
58091;SDS011;43896;48.178;11.578;2022-07-18T12:37:30;2.85;;;1.70;;
58091;SDS011;43896;48.178;11.578;2022-07-18T12:39:57;2.97;;;1.67;;
58091;SDS011;43896;48.178;11.578;2022-07-18T12:42:27;2.72;;;1.60;;
58091;SDS011;43896;48.178;11.578;2022-07-18T12:44:58;6.70;;;1.90;;
58091;SDS011;43896;48.178;11.578;2022-07-18T12:47:24;8.30;;;1.70;;
58091;SDS011;43896;48.178;11.578;2022-07-18T12:49:50;3.45;;;1.80;;
58091;SDS011;43896;48.178;11.578;2022-07-18T12:52:16;2.17;;;1.30;;
58091;SDS011;43896;48.178;11.578;2022-07-18T12:54:43;3.42;;;1.70;;
58091;SDS011;43896;48.178;11.578;2022-07-18T12:57:08;5.75;;;1.60;;
58091;SDS011;43896;48.178;11.578;2022-07-18T12:59:33;2.95;;;1.60;;
58091;SDS011;43896;48.178;11.578;2022-07-18T13:01:59;3.33;;;1.58;;
58091;SDS011;43896;48.178;11.578;2022-07-18T13:04:24;3.78;;;1.88;;
58091;SDS011;43896;48.178;11.578;2022-07-18T13:06:50;3.67;;;1.40;;
58091;SDS011;43896;48.178;11.578;2022-07-18T13:09:15;3.97;;;1.60;;
58091;SDS011;43896;48.178;11.578;2022-07-18T13:11:40;4.57;;;1.65;;
58091;SDS011;43896;48.178;11.578;2022-07-18T13:14:08;3.20;;;1.50;;
58091;SDS011;43896;48.178;11.578;2022-07-18T13:16:33;3.30;;;1.40;;
58091;SDS011;43896;48.178;11.578;2022-07-18T13:18:58;5.65;;;1.67;;
58091;SDS011;43896;48.178;11.578;2022-07-18T13:21:24;3.60;;;1.60;;
58091;SDS011;43896;48.178;11.578;2022-07-18T13:23:49;4.93;;;1.65;;
58091;SDS011;43896;48.178;11.578;2022-07-18T13:26:15;3.13;;;1.60;;
58091;SDS011;43896;48.178;11.578;2022-07-18T13:28:40;3.85;;;1.50;;
58091;SDS011;43896;48.178;11.578;2022-07-18T13:31:05;3.55;;;1.30;;
58091;SDS011;43896;48.178;11.578;2022-07-18T13:33:31;2.60;;;1.23;;
58091;SDS011;43896;48.178;11.578;2022-07-18T13:35:56;2.42;;;1.40;;
58091;SDS011;43896;48.178;11.578;2022-07-18T13:38:22;4.28;;;1.65;;
58091;SDS011;43896;48.178;11.578;2022-07-18T13:40:47;2.45;;;1.50;;
58091;SDS011;43896;48.178;11.578;2022-07-18T13:43:12;3.58;;;1.40;;
58091;SDS011;43896;48.178;11.578;2022-07-18T13:45:38;3.67;;;1.40;;
58091;SDS011;43896;48.178;11.578;2022-07-18T13:48:04;2.17;;;1.40;;
58091;SDS011;43896;48.178;11.578;2022-07-18T13:50:29;3.22;;;1.40;;
58091;SDS011;43896;48.178;11.578;2022-07-18T13:52:56;2.10;;;1.30;;
58091;SDS011;43896;48.178;11.578;2022-07-18T13:55:21;6.13;;;1.90;;
58091;SDS011;43896;48.178;11.578;2022-07-18T13:57:47;7.57;;;1.70;;
58091;SDS011;43896;48.178;11.578;2022-07-18T14:00:13;3.38;;;1.60;;
58091;SDS011;43896;48.178;11.578;2022-07-18T14:02:39;4.35;;;1.30;;
58091;SDS011;43896;48.178;11.578;2022-07-18T14:05:04;2.95;;;1.40;;
58091;SDS011;43896;48.178;11.578;2022-07-18T14:07:30;4.82;;;1.70;;
58091;SDS011;43896;48.178;11.578;2022-07-18T14:09:55;5.20;;;1.70;;
58091;SDS011;43896;48.178;11.578;2022-07-18T14:12:21;3.72;;;1.50;;
58091;SDS011;43896;48.178;11.578;2022-07-18T14:14:46;4.75;;;1.50;;
58091;SDS011;43896;48.178;11.578;2022-07-18T14:17:12;4.97;;;1.77;;
58091;SDS011;43896;48.178;11.578;2022-07-18T14:19:37;5.43;;;1.77;;
58091;SDS011;43896;48.178;11.578;2022-07-18T14:22:03;3.72;;;1.58;;
58091;SDS011;43896;48.178;11.578;2022-07-18T14:24:28;3.85;;;1.50;;
58091;SDS011;43896;48.178;11.578;2022-07-18T14:26:53;5.50;;;1.60;;
58091;SDS011;43896;48.178;11.578;2022-07-18T14:29:19;5.47;;;1.70;;
58091;SDS011;43896;48.178;11.578;2022-07-18T14:31:44;3.45;;;1.52;;
58091;SDS011;43896;48.178;11.578;2022-07-18T14:34:09;3.88;;;1.60;;
58091;SDS011;43896;48.178;11.578;2022-07-18T14:36:35;2.75;;;1.40;;
58091;SDS011;43896;48.178;11.578;2022-07-18T14:39:00;4.18;;;1.52;;
58091;SDS011;43896;48.178;11.578;2022-07-18T14:41:26;4.78;;;1.70;;
58091;SDS011;43896;48.178;11.578;2022-07-18T14:43:51;3.42;;;1.48;;
58091;SDS011;43896;48.178;11.578;2022-07-18T14:46:16;3.35;;;1.45;;
58091;SDS011;43896;48.178;11.578;2022-07-18T14:48:42;3.17;;;1.58;;
58091;SDS011;43896;48.178;11.578;2022-07-18T14:51:07;6.28;;;1.70;;
58091;SDS011;43896;48.178;11.578;2022-07-18T14:53:32;3.42;;;1.65;;
58091;SDS011;43896;48.178;11.578;2022-07-18T14:55:58;4.43;;;1.63;;
58091;SDS011;43896;48.178;11.578;2022-07-18T14:58:23;3.65;;;1.58;;
58091;SDS011;43896;48.178;11.578;2022-07-18T15:00:48;5.88;;;1.45;;
58091;SDS011;43896;48.178;11.578;2022-07-18T15:03:14;4.65;;;1.70;;
58091;SDS011;43896;48.178;11.578;2022-07-18T15:05:39;3.53;;;1.85;;
58091;SDS011;43896;48.178;11.578;2022-07-18T15:08:04;4.07;;;1.60;;
58091;SDS011;43896;48.178;11.578;2022-07-18T15:10:29;4.63;;;1.70;;
58091;SDS011;43896;48.178;11.578;2022-07-18T15:12:55;2.53;;;1.63;;
58091;SDS011;43896;48.178;11.578;2022-07-18T15:15:20;2.42;;;1.70;;
58091;SDS011;43896;48.178;11.578;2022-07-18T15:17:45;2.95;;;1.67;;
58091;SDS011;43896;48.178;11.578;2022-07-18T15:20:11;2.80;;;1.50;;
58091;SDS011;43896;48.178;11.578;2022-07-18T15:22:37;4.93;;;1.50;;
58091;SDS011;43896;48.178;11.578;2022-07-18T15:25:03;2.60;;;1.50;;
58091;SDS011;43896;48.178;11.578;2022-07-18T15:27:28;5.47;;;1.50;;
58091;SDS011;43896;48.178;11.578;2022-07-18T15:29:54;3.22;;;1.50;;
58091;SDS011;43896;48.178;11.578;2022-07-18T15:32:19;2.40;;;1.50;;
58091;SDS011;43896;48.178;11.578;2022-07-18T15:34:44;5.03;;;1.63;;
58091;SDS011;43896;48.178;11.578;2022-07-18T15:37:10;3.92;;;1.75;;
58091;SDS011;43896;48.178;11.578;2022-07-18T15:39:35;4.55;;;1.90;;
58091;SDS011;43896;48.178;11.578;2022-07-18T15:42:01;3.92;;;1.60;;
58091;SDS011;43896;48.178;11.578;2022-07-18T15:44:27;4.32;;;1.70;;
58091;SDS011;43896;48.178;11.578;2022-07-18T15:46:53;7.40;;;1.80;;
58091;SDS011;43896;48.178;11.578;2022-07-18T15:49:18;5.35;;;1.52;;
58091;SDS011;43896;48.178;11.578;2022-07-18T15:51:44;4.15;;;1.73;;
58091;SDS011;43896;48.178;11.578;2022-07-18T15:54:13;2.92;;;1.45;;
58091;SDS011;43896;48.178;11.578;2022-07-18T15:56:42;3.00;;;1.50;;
58091;SDS011;43896;48.178;11.578;2022-07-18T15:59:08;2.30;;;1.35;;
58091;SDS011;43896;48.178;11.578;2022-07-18T16:01:33;2.95;;;1.30;;
58091;SDS011;43896;48.178;11.578;2022-07-18T16:03:59;5.10;;;1.60;;
58091;SDS011;43896;48.178;11.578;2022-07-18T16:06:24;2.75;;;1.50;;
58091;SDS011;43896;48.178;11.578;2022-07-18T16:08:50;4.18;;;1.60;;
58091;SDS011;43896;48.178;11.578;2022-07-18T16:11:15;4.43;;;1.60;;
58091;SDS011;43896;48.178;11.578;2022-07-18T16:13:41;3.28;;;1.40;;
58091;SDS011;43896;48.178;11.578;2022-07-18T16:16:06;4.85;;;1.80;;
58091;SDS011;43896;48.178;11.578;2022-07-18T16:18:32;3.72;;;1.70;;
58091;SDS011;43896;48.178;11.578;2022-07-18T16:20:57;3.15;;;1.73;;
58091;SDS011;43896;48.178;11.578;2022-07-18T16:23:23;3.60;;;1.80;;
58091;SDS011;43896;48.178;11.578;2022-07-18T16:25:48;3.10;;;1.35;;
58091;SDS011;43896;48.178;11.578;2022-07-18T16:28:13;4.03;;;1.50;;
58091;SDS011;43896;48.178;11.578;2022-07-18T16:30:39;3.65;;;1.60;;
58091;SDS011;43896;48.178;11.578;2022-07-18T16:33:04;3.55;;;1.50;;
58091;SDS011;43896;48.178;11.578;2022-07-18T16:35:30;5.70;;;2.33;;
58091;SDS011;43896;48.178;11.578;2022-07-18T16:37:55;3.92;;;1.60;;
58091;SDS011;43896;48.178;11.578;2022-07-18T16:40:21;4.65;;;1.70;;
58091;SDS011;43896;48.178;11.578;2022-07-18T16:42:46;3.30;;;1.60;;
58091;SDS011;43896;48.178;11.578;2022-07-18T16:45:12;5.97;;;1.73;;
58091;SDS011;43896;48.178;11.578;2022-07-18T16:47:38;3.33;;;1.77;;
58091;SDS011;43896;48.178;11.578;2022-07-18T16:50:04;2.92;;;1.40;;
58091;SDS011;43896;48.178;11.578;2022-07-18T16:52:31;5.32;;;1.92;;
58091;SDS011;43896;48.178;11.578;2022-07-18T16:54:56;3.67;;;1.58;;
58091;SDS011;43896;48.178;11.578;2022-07-18T16:57:22;2.42;;;1.40;;
58091;SDS011;43896;48.178;11.578;2022-07-18T16:59:48;4.50;;;1.80;;
58091;SDS011;43896;48.178;11.578;2022-07-18T17:02:14;3.70;;;2.00;;
58091;SDS011;43896;48.178;11.578;2022-07-18T17:04:41;3.97;;;1.80;;
58091;SDS011;43896;48.178;11.578;2022-07-18T17:07:07;3.80;;;1.73;;
58091;SDS011;43896;48.178;11.578;2022-07-18T17:09:32;2.42;;;1.50;;
58091;SDS011;43896;48.178;11.578;2022-07-18T17:11:58;5.85;;;1.67;;
58091;SDS011;43896;48.178;11.578;2022-07-18T17:14:23;5.22;;;1.83;;
58091;SDS011;43896;48.178;11.578;2022-07-18T17:16:49;4.00;;;1.77;;
58091;SDS011;43896;48.178;11.578;2022-07-18T17:19:15;3.28;;;1.70;;
58091;SDS011;43896;48.178;11.578;2022-07-18T17:21:40;5.05;;;1.55;;
58091;SDS011;43896;48.178;11.578;2022-07-18T17:24:06;5.90;;;1.50;;
58091;SDS011;43896;48.178;11.578;2022-07-18T17:26:32;3.72;;;1.60;;
58091;SDS011;43896;48.178;11.578;2022-07-18T17:28:58;3.92;;;1.73;;
58091;SDS011;43896;48.178;11.578;2022-07-18T17:31:24;3.67;;;1.42;;
58091;SDS011;43896;48.178;11.578;2022-07-18T17:33:49;4.05;;;1.67;;
58091;SDS011;43896;48.178;11.578;2022-07-18T17:36:15;3.85;;;1.73;;
58091;SDS011;43896;48.178;11.578;2022-07-18T17:38:41;4.28;;;1.80;;
58091;SDS011;43896;48.178;11.578;2022-07-18T17:41:07;4.10;;;1.70;;
58091;SDS011;43896;48.178;11.578;2022-07-18T17:43:33;2.97;;;1.30;;
58091;SDS011;43896;48.178;11.578;2022-07-18T17:45:58;5.90;;;1.50;;
58091;SDS011;43896;48.178;11.578;2022-07-18T17:48:25;7.90;;;1.50;;
58091;SDS011;43896;48.178;11.578;2022-07-18T17:50:51;4.90;;;1.60;;
58091;SDS011;43896;48.178;11.578;2022-07-18T17:53:17;2.83;;;1.30;;
58091;SDS011;43896;48.178;11.578;2022-07-18T17:55:43;5.47;;;1.48;;
58091;SDS011;43896;48.178;11.578;2022-07-18T17:58:08;5.75;;;1.65;;
58091;SDS011;43896;48.178;11.578;2022-07-18T18:00:33;5.57;;;1.55;;
58091;SDS011;43896;48.178;11.578;2022-07-18T18:02:59;5.80;;;1.52;;
58091;SDS011;43896;48.178;11.578;2022-07-18T18:05:24;3.03;;;1.70;;
58091;SDS011;43896;48.178;11.578;2022-07-18T18:07:51;3.40;;;1.70;;
58091;SDS011;43896;48.178;11.578;2022-07-18T18:10:17;6.07;;;1.92;;
58091;SDS011;43896;48.178;11.578;2022-07-18T18:12:44;4.13;;;1.90;;
58091;SDS011;43896;48.178;11.578;2022-07-18T18:15:10;2.75;;;1.48;;
58091;SDS011;43896;48.178;11.578;2022-07-18T18:17:38;5.80;;;3.22;;
58091;SDS011;43896;48.178;11.578;2022-07-18T18:20:04;4.28;;;1.50;;
58091;SDS011;43896;48.178;11.578;2022-07-18T18:22:30;4.90;;;1.77;;
58091;SDS011;43896;48.178;11.578;2022-07-18T18:24:56;4.30;;;1.50;;
58091;SDS011;43896;48.178;11.578;2022-07-18T18:27:21;4.78;;;1.65;;
58091;SDS011;43896;48.178;11.578;2022-07-18T18:29:47;4.22;;;1.60;;
58091;SDS011;43896;48.178;11.578;2022-07-18T18:32:12;6.32;;;1.90;;
58091;SDS011;43896;48.178;11.578;2022-07-18T18:34:38;5.43;;;1.80;;
58091;SDS011;43896;48.178;11.578;2022-07-18T18:37:04;4.05;;;1.77;;
58091;SDS011;43896;48.178;11.578;2022-07-18T18:39:32;4.22;;;1.70;;
58091;SDS011;43896;48.178;11.578;2022-07-18T18:42:00;5.78;;;1.73;;
58091;SDS011;43896;48.178;11.578;2022-07-18T18:44:26;5.47;;;2.00;;
58091;SDS011;43896;48.178;11.578;2022-07-18T18:46:52;4.68;;;1.50;;
58091;SDS011;43896;48.178;11.578;2022-07-18T18:49:18;3.70;;;1.70;;
58091;SDS011;43896;48.178;11.578;2022-07-18T18:51:44;3.28;;;1.60;;
58091;SDS011;43896;48.178;11.578;2022-07-18T18:54:12;6.53;;;1.80;;
58091;SDS011;43896;48.178;11.578;2022-07-18T18:56:38;3.33;;;1.40;;
58091;SDS011;43896;48.178;11.578;2022-07-18T18:59:04;3.70;;;1.92;;
58091;SDS011;43896;48.178;11.578;2022-07-18T19:01:31;3.03;;;1.63;;
58091;SDS011;43896;48.178;11.578;2022-07-18T19:03:57;3.45;;;1.63;;
58091;SDS011;43896;48.178;11.578;2022-07-18T19:06:23;4.00;;;1.60;;
58091;SDS011;43896;48.178;11.578;2022-07-18T19:08:51;3.40;;;1.60;;
58091;SDS011;43896;48.178;11.578;2022-07-18T19:11:17;3.30;;;1.58;;
58091;SDS011;43896;48.178;11.578;2022-07-18T19:13:44;4.65;;;1.70;;
58091;SDS011;43896;48.178;11.578;2022-07-18T19:16:09;5.25;;;1.70;;
58091;SDS011;43896;48.178;11.578;2022-07-18T19:18:35;5.90;;;1.70;;
58091;SDS011;43896;48.178;11.578;2022-07-18T19:21:00;4.40;;;1.90;;
58091;SDS011;43896;48.178;11.578;2022-07-18T19:23:25;3.63;;;1.75;;
58091;SDS011;43896;48.178;11.578;2022-07-18T19:25:51;7.07;;;2.60;;
58091;SDS011;43896;48.178;11.578;2022-07-18T19:28:16;4.57;;;1.92;;
58091;SDS011;43896;48.178;11.578;2022-07-18T19:30:41;5.10;;;2.45;;
58091;SDS011;43896;48.178;11.578;2022-07-18T19:33:09;3.95;;;1.90;;
58091;SDS011;43896;48.178;11.578;2022-07-18T19:35:35;4.53;;;1.77;;
58091;SDS011;43896;48.178;11.578;2022-07-18T19:38:01;3.35;;;1.90;;
58091;SDS011;43896;48.178;11.578;2022-07-18T19:40:26;6.28;;;2.08;;
58091;SDS011;43896;48.178;11.578;2022-07-18T19:42:52;4.93;;;2.13;;
58091;SDS011;43896;48.178;11.578;2022-07-18T19:45:18;5.22;;;2.00;;
58091;SDS011;43896;48.178;11.578;2022-07-18T19:47:43;4.38;;;1.85;;
58091;SDS011;43896;48.178;11.578;2022-07-18T19:50:09;5.88;;;2.10;;
58091;SDS011;43896;48.178;11.578;2022-07-18T19:52:35;4.53;;;1.90;;
58091;SDS011;43896;48.178;11.578;2022-07-18T19:55:00;3.75;;;2.00;;
58091;SDS011;43896;48.178;11.578;2022-07-18T19:57:26;3.78;;;1.90;;
58091;SDS011;43896;48.178;11.578;2022-07-18T19:59:51;3.95;;;1.90;;
58091;SDS011;43896;48.178;11.578;2022-07-18T20:05:25;8.25;;;4.13;;
58091;SDS011;43896;48.178;11.578;2022-07-18T20:15:43;3.65;;;1.80;;
58091;SDS011;43896;48.178;11.578;2022-07-18T20:33:15;6.40;;;2.30;;
58091;SDS011;43896;48.178;11.578;2022-07-18T20:36:26;4.47;;;1.90;;
58091;SDS011;43896;48.178;11.578;2022-07-18T20:46:22;3.53;;;1.85;;
58091;SDS011;43896;48.178;11.578;2022-07-18T20:49:22;7.50;;;2.10;;